Time;durP1;ratioP1;P1;durP2;ratioP2;P2;SDS_P1;SDS_P2;PMS_P1;PMS_P2;Temp;Humidity;BMP_temperature;BMP_pressure;BME280_temperature;BME280_humidity;BME280_pressure;Samples;Min_cycle;Max_cycle;Signal;HPM_P1;HPM_P2
2023/12/08 00:02:07;;;;;;;9.57;7.37;;;;;;;;;;4989482;28;20179;-82
2023/12/08 00:04:34;;;;;;;8.27;6.77;;;;;;;;;;4966972;28;20238;-82
2023/12/08 00:07:00;;;;;;;9.57;7.37;;;;;;;;;;4966591;28;20183;-82
2023/12/08 00:09:26;;;;;;;11.00;7.53;;;;;;;;;;4966682;28;20253;-82
2023/12/08 00:11:53;;;;;;;9.73;7.33;;;;;;;;;;4984465;28;20214;-82
2023/12/08 00:14:19;;;;;;;10.17;7.47;;;;;;;;;;4965911;28;20235;-82
2023/12/08 00:16:45;;;;;;;10.83;7.43;;;;;;;;;;4973148;28;20196;-82
2023/12/08 00:19:11;;;;;;;9.73;7.73;;;;;;;;;;4969386;28;20207;-82
2023/12/08 00:21:37;;;;;;;9.03;7.23;;;;;;;;;;4971203;28;20223;-82
2023/12/08 00:24:04;;;;;;;10.53;7.60;;;;;;;;;;4972101;28;20195;-82
2023/12/08 00:26:30;;;;;;;8.50;6.97;;;;;;;;;;4986781;28;20256;-82
2023/12/08 00:28:56;;;;;;;11.00;7.30;;;;;;;;;;4983383;28;20667;-82
2023/12/08 00:31:22;;;;;;;9.37;7.13;;;;;;;;;;4985263;28;20471;-83
2023/12/08 00:33:48;;;;;;;9.90;7.60;;;;;;;;;;4986741;28;20267;-83
2023/12/08 00:36:16;;;;;;;9.20;6.93;;;;;;;;;;4974655;28;20189;-82
2023/12/08 00:38:43;;;;;;;10.37;7.67;;;;;;;;;;4992399;28;20560;-82
2023/12/08 00:41:09;;;;;;;10.30;7.90;;;;;;;;;;4975118;28;20279;-82
2023/12/08 00:43:36;;;;;;;10.27;7.90;;;;;;;;;;4977007;28;20215;-82
2023/12/08 00:46:02;;;;;;;10.73;7.70;;;;;;;;;;4978106;28;20805;-82
2023/12/08 00:48:28;;;;;;;9.50;7.30;;;;;;;;;;4993063;28;20211;-82
2023/12/08 00:50:54;;;;;;;10.20;8.00;;;;;;;;;;4994563;28;20193;-82
2023/12/08 00:53:20;;;;;;;11.70;8.03;;;;;;;;;;4979480;28;20195;-82
2023/12/08 00:55:46;;;;;;;11.10;7.87;;;;;;;;;;4993865;28;20204;-82
2023/12/08 00:58:17;;;;;;;11.07;7.67;;;;;;;;;;4994327;28;20586;-82
2023/12/08 01:00:44;;;;;;;9.87;7.63;;;;;;;;;;4977495;28;20223;-82
2023/12/08 01:03:10;;;;;;;10.97;7.87;;;;;;;;;;4994660;28;20707;-82
2023/12/08 01:05:37;;;;;;;10.07;7.90;;;;;;;;;;4978015;28;20262;-82
2023/12/08 01:08:03;;;;;;;10.00;7.77;;;;;;;;;;4975916;28;20645;-82
2023/12/08 01:10:29;;;;;;;9.03;7.10;;;;;;;;;;4978339;28;20194;-82
2023/12/08 01:12:55;;;;;;;11.13;7.37;;;;;;;;;;4978320;28;20276;-82
2023/12/08 01:15:21;;;;;;;11.33;7.70;;;;;;;;;;4975303;28;20215;-82
2023/12/08 01:17:47;;;;;;;11.23;7.97;;;;;;;;;;4975935;28;20203;-82
2023/12/08 01:20:13;;;;;;;10.70;7.70;;;;;;;;;;4977231;28;20554;-82
2023/12/08 01:22:39;;;;;;;9.73;7.47;;;;;;;;;;4994093;28;20214;-82
2023/12/08 01:25:06;;;;;;;9.83;7.57;;;;;;;;;;4993849;28;20192;-82
2023/12/08 01:27:32;;;;;;;12.00;7.50;;;;;;;;;;4993696;28;20282;-82
2023/12/08 01:29:58;;;;;;;9.30;7.00;;;;;;;;;;4985966;28;20589;-82
2023/12/08 01:32:25;;;;;;;8.60;6.70;;;;;;;;;;4969930;28;20191;-82
2023/12/08 01:34:51;;;;;;;9.43;7.67;;;;;;;;;;4952906;28;20197;-82
2023/12/08 01:37:17;;;;;;;9.97;7.50;;;;;;;;;;4965617;28;20203;-82
2023/12/08 01:39:43;;;;;;;9.73;7.10;;;;;;;;;;4967613;28;20707;-82
2023/12/08 01:42:10;;;;;;;9.27;6.83;;;;;;;;;;4968748;28;20200;-82
2023/12/08 01:44:36;;;;;;;8.87;6.87;;;;;;;;;;4967167;28;20219;-82
2023/12/08 01:47:03;;;;;;;7.97;6.20;;;;;;;;;;4966802;28;20283;-82
2023/12/08 01:49:29;;;;;;;8.17;6.00;;;;;;;;;;4966956;28;20698;-82
2023/12/08 01:51:55;;;;;;;9.90;6.80;;;;;;;;;;4964986;28;20255;-82
2023/12/08 01:54:21;;;;;;;9.53;6.67;;;;;;;;;;4982859;28;20220;-82
2023/12/08 01:56:47;;;;;;;8.53;6.47;;;;;;;;;;4969314;28;20199;-82
2023/12/08 01:59:14;;;;;;;7.63;6.30;;;;;;;;;;4980502;28;20676;-82
2023/12/08 02:01:41;;;;;;;8.70;6.00;;;;;;;;;;4981969;28;20191;-82
2023/12/08 02:04:07;;;;;;;8.63;6.67;;;;;;;;;;4985027;28;20266;-82
2023/12/08 02:06:34;;;;;;;8.03;6.57;;;;;;;;;;4982924;28;20194;-82
2023/12/08 02:09:00;;;;;;;7.77;6.30;;;;;;;;;;4965801;28;20302;-81
2023/12/08 02:11:27;;;;;;;7.60;5.93;;;;;;;;;;4973198;28;20196;-82
2023/12/08 02:13:53;;;;;;;9.37;6.87;;;;;;;;;;4959130;28;20184;-82
2023/12/08 02:16:26;;;;;;;9.00;6.73;;;;;;;;;;4988167;28;20617;-82
2023/12/08 02:18:52;;;;;;;8.83;6.77;;;;;;;;;;4952186;28;20219;-82
2023/12/08 02:21:19;;;;;;;9.37;7.17;;;;;;;;;;4991576;28;20184;-82
2023/12/08 02:23:48;;;;;;;8.33;6.37;;;;;;;;;;4959683;28;20594;-82
2023/12/08 02:26:14;;;;;;;10.30;7.13;;;;;;;;;;4974611;28;20707;-82
2023/12/08 02:28:41;;;;;;;8.80;6.37;;;;;;;;;;4973939;28;20215;-82
2023/12/08 02:31:11;;;;;;;9.80;7.27;;;;;;;;;;4975622;28;20196;-82
2023/12/08 02:33:38;;;;;;;8.83;6.90;;;;;;;;;;4972521;28;20551;-82
2023/12/08 02:36:06;;;;;;;9.83;6.57;;;;;;;;;;4964052;28;20199;-82
2023/12/08 02:38:36;;;;;;;11.23;7.43;;;;;;;;;;4978978;28;20326;-82
2023/12/08 02:41:03;;;;;;;8.20;6.50;;;;;;;;;;4996387;28;20274;-82
2023/12/08 02:43:29;;;;;;;9.20;7.07;;;;;;;;;;4980976;28;20640;-82
2023/12/08 02:45:55;;;;;;;8.87;7.13;;;;;;;;;;4979682;28;20192;-82
2023/12/08 02:48:21;;;;;;;8.90;6.93;;;;;;;;;;4983031;28;21106;-82
2023/12/08 02:50:47;;;;;;;8.07;6.43;;;;;;;;;;4980393;28;20219;-82
2023/12/08 02:53:13;;;;;;;7.23;6.17;;;;;;;;;;4996940;28;20180;-82
2023/12/08 02:55:39;;;;;;;8.33;5.93;;;;;;;;;;4979880;28;20557;-82
2023/12/08 02:58:06;;;;;;;9.67;7.37;;;;;;;;;;4980089;28;20214;-82
2023/12/08 03:00:32;;;;;;;10.33;6.97;;;;;;;;;;4993529;28;20190;-82
2023/12/08 03:02:58;;;;;;;9.23;6.97;;;;;;;;;;4979479;28;20208;-82
2023/12/08 03:05:24;;;;;;;10.43;7.40;;;;;;;;;;4992403;28;20242;-82
2023/12/08 03:07:50;;;;;;;8.97;7.30;;;;;;;;;;4994222;28;20199;-82
2023/12/08 03:10:16;;;;;;;11.60;8.73;;;;;;;;;;4991287;28;20250;-82
2023/12/08 03:12:43;;;;;;;11.13;8.93;;;;;;;;;;4976675;28;20199;-82
2023/12/08 03:15:09;;;;;;;12.23;9.03;;;;;;;;;;4992847;28;20188;-82
2023/12/08 03:17:35;;;;;;;13.90;10.53;;;;;;;;;;4975662;28;20202;-82
2023/12/08 03:20:01;;;;;;;11.77;8.83;;;;;;;;;;4975598;28;20192;-82
2023/12/08 03:22:27;;;;;;;13.40;9.37;;;;;;;;;;4972509;28;20192;-82
2023/12/08 03:24:53;;;;;;;13.67;9.30;;;;;;;;;;4989114;28;20628;-82
2023/12/08 03:27:20;;;;;;;12.97;10.40;;;;;;;;;;4986193;28;20270;-81
2023/12/08 03:29:46;;;;;;;12.67;9.63;;;;;;;;;;4999863;28;20220;-82
2023/12/08 03:32:12;;;;;;;13.23;10.33;;;;;;;;;;4988352;28;20180;-82
2023/12/08 03:34:38;;;;;;;12.73;9.87;;;;;;;;;;4965688;28;20647;-82
2023/12/08 03:37:04;;;;;;;14.20;10.13;;;;;;;;;;4963900;28;20192;-82
2023/12/08 03:39:31;;;;;;;12.57;9.60;;;;;;;;;;4968111;28;20590;-82
2023/12/08 03:41:57;;;;;;;14.43;10.97;;;;;;;;;;4965864;28;20301;-82
2023/12/08 03:44:23;;;;;;;14.93;10.83;;;;;;;;;;4981200;28;20192;-82
2023/12/08 03:46:49;;;;;;;15.20;11.53;;;;;;;;;;4963497;28;20196;-82
2023/12/08 03:49:15;;;;;;;15.20;11.47;;;;;;;;;;4966562;28;20366;-82
2023/12/08 03:51:41;;;;;;;16.10;11.27;;;;;;;;;;4966981;28;20184;-82
2023/12/08 03:54:07;;;;;;;16.43;11.63;;;;;;;;;;4965943;28;20216;-82
2023/12/08 03:56:33;;;;;;;14.93;11.43;;;;;;;;;;4955147;28;20207;-82
2023/12/08 03:59:00;;;;;;;17.33;12.30;;;;;;;;;;4973203;28;20257;-82
2023/12/08 04:01:26;;;;;;;16.20;11.60;;;;;;;;;;4981829;28;20726;-82
2023/12/08 04:03:52;;;;;;;16.33;11.67;;;;;;;;;;4969725;28;20196;-82
2023/12/08 04:06:18;;;;;;;16.57;11.90;;;;;;;;;;4998076;28;20184;-82
2023/12/08 04:08:45;;;;;;;15.73;11.37;;;;;;;;;;4980645;28;20215;-82
2023/12/08 04:11:11;;;;;;;15.57;10.50;;;;;;;;;;4963007;28;20184;-82
2023/12/08 04:13:39;;;;;;;15.43;11.63;;;;;;;;;;4986136;28;20207;-83
2023/12/08 04:16:05;;;;;;;18.20;11.70;;;;;;;;;;4988423;28;20184;-82
2023/12/08 04:18:31;;;;;;;18.40;12.17;;;;;;;;;;4971339;28;20218;-82
2023/12/08 04:20:57;;;;;;;20.50;13.50;;;;;;;;;;4969997;28;20288;-82
2023/12/08 04:23:24;;;;;;;22.07;13.60;;;;;;;;;;4971653;28;20726;-82
2023/12/08 04:25:50;;;;;;;25.77;15.60;;;;;;;;;;4982509;28;20568;-82
2023/12/08 04:28:16;;;;;;;16.80;11.20;;;;;;;;;;4987427;28;20250;-82
2023/12/08 04:30:42;;;;;;;18.93;12.83;;;;;;;;;;4963799;28;20600;-82
2023/12/08 04:33:09;;;;;;;19.33;13.07;;;;;;;;;;4982929;28;20219;-82
2023/12/08 04:35:35;;;;;;;18.97;13.77;;;;;;;;;;4968616;28;20641;-82
2023/12/08 04:38:02;;;;;;;16.57;12.17;;;;;;;;;;4992239;28;20230;-82
2023/12/08 04:40:28;;;;;;;19.43;14.53;;;;;;;;;;4977199;28;20250;-83
2023/12/08 04:42:54;;;;;;;20.33;15.30;;;;;;;;;;4959305;28;20184;-83
2023/12/08 04:45:20;;;;;;;22.07;16.20;;;;;;;;;;4961330;28;20687;-83
2023/12/08 04:47:46;;;;;;;23.00;15.80;;;;;;;;;;4998619;28;20617;-82
2023/12/08 04:50:12;;;;;;;18.70;14.30;;;;;;;;;;5001831;28;20211;-83
2023/12/08 04:52:38;;;;;;;22.67;16.23;;;;;;;;;;4985633;28;20271;-82
2023/12/08 04:55:05;;;;;;;21.83;15.43;;;;;;;;;;4997818;28;20235;-83
2023/12/08 04:57:32;;;;;;;23.47;15.73;;;;;;;;;;4978624;28;20325;-83
2023/12/08 04:59:58;;;;;;;20.93;14.50;;;;;;;;;;4984488;28;20211;-83
2023/12/08 05:02:25;;;;;;;22.17;16.00;;;;;;;;;;4976757;28;20199;-83
2023/12/08 05:04:51;;;;;;;23.33;16.10;;;;;;;;;;4983015;28;20195;-83
2023/12/08 05:07:17;;;;;;;22.17;15.40;;;;;;;;;;4981207;28;20698;-83
2023/12/08 05:09:44;;;;;;;20.30;14.33;;;;;;;;;;4960843;28;20215;-83
2023/12/08 05:12:10;;;;;;;21.83;15.93;;;;;;;;;;4966361;28;20203;-83
2023/12/08 05:14:37;;;;;;;20.73;15.50;;;;;;;;;;4991935;28;20184;-83
2023/12/08 05:17:03;;;;;;;21.40;15.00;;;;;;;;;;4968685;28;20196;-83
2023/12/08 05:19:29;;;;;;;21.97;16.10;;;;;;;;;;4988658;28;20715;-83
2023/12/08 05:21:55;;;;;;;22.83;15.23;;;;;;;;;;4979855;28;20189;-83
2023/12/08 05:24:22;;;;;;;26.63;21.73;;;;;;;;;;4964667;28;20552;-83
2023/12/08 05:26:48;;;;;;;24.80;17.80;;;;;;;;;;4980024;28;20336;-83
2023/12/08 05:29:14;;;;;;;21.20;16.23;;;;;;;;;;4999239;28;20219;-83
2023/12/08 05:31:40;;;;;;;24.80;16.73;;;;;;;;;;4984399;28;20187;-84
2023/12/08 05:34:06;;;;;;;20.90;15.53;;;;;;;;;;4997590;28;20188;-83
2023/12/08 05:36:32;;;;;;;22.80;15.37;;;;;;;;;;4981911;28;20287;-83
2023/12/08 05:38:58;;;;;;;19.80;14.63;;;;;;;;;;4988296;28;20331;-83
2023/12/08 05:41:24;;;;;;;21.13;14.53;;;;;;;;;;4994702;28;20271;-83
2023/12/08 05:43:50;;;;;;;21.93;14.87;;;;;;;;;;4966653;28;20657;-83
2023/12/08 05:46:17;;;;;;;22.80;15.53;;;;;;;;;;4974278;28;20282;-83
2023/12/08 05:48:43;;;;;;;20.23;14.83;;;;;;;;;;4971423;28;20216;-83
2023/12/08 05:51:09;;;;;;;21.13;15.23;;;;;;;;;;4993604;28;20211;-83
2023/12/08 05:53:35;;;;;;;25.87;16.77;;;;;;;;;;4975627;28;20251;-83
2023/12/08 05:56:02;;;;;;;22.07;15.53;;;;;;;;;;4995085;28;20176;-83
2023/12/08 05:58:28;;;;;;;22.60;16.50;;;;;;;;;;4995700;28;20266;-83
2023/12/08 06:00:55;;;;;;;21.13;15.20;;;;;;;;;;4981238;28;20565;-83
2023/12/08 06:03:21;;;;;;;24.27;17.10;;;;;;;;;;4970899;28;20207;-83
2023/12/08 06:05:47;;;;;;;23.33;17.03;;;;;;;;;;4978081;28;20381;-83
2023/12/08 06:08:13;;;;;;;22.50;16.70;;;;;;;;;;4992114;28;20214;-83
2023/12/08 06:10:39;;;;;;;22.27;15.93;;;;;;;;;;4986404;28;20192;-83
2023/12/08 06:13:05;;;;;;;24.30;16.53;;;;;;;;;;4990191;28;20200;-81
2023/12/08 06:15:33;;;;;;;21.40;15.27;;;;;;;;;;4964908;28;20199;-82
2023/12/08 06:17:59;;;;;;;22.37;15.90;;;;;;;;;;4974730;28;20879;-83
2023/12/08 06:20:25;;;;;;;20.58;16.38;;;;;;;;;;4961637;28;20444;-83
2023/12/08 06:22:51;;;;;;;18.87;13.83;;;;;;;;;;4974890;28;20196;-83
2023/12/08 06:25:17;;;;;;;17.10;13.20;;;;;;;;;;4974878;28;20196;-83
2023/12/08 06:27:43;;;;;;;15.73;11.33;;;;;;;;;;4969653;28;20191;-83
2023/12/08 06:30:11;;;;;;;16.23;11.87;;;;;;;;;;4968815;28;20311;-83
2023/12/08 06:32:37;;;;;;;16.00;12.00;;;;;;;;;;4974764;28;20190;-83
2023/12/08 06:35:03;;;;;;;15.37;11.77;;;;;;;;;;4975918;28;20564;-83
2023/12/08 06:37:30;;;;;;;15.67;11.23;;;;;;;;;;4966518;28;20190;-83
2023/12/08 06:39:56;;;;;;;14.43;11.03;;;;;;;;;;4965408;28;20203;-83
2023/12/08 06:42:22;;;;;;;16.97;11.03;;;;;;;;;;4956908;28;20183;-83
2023/12/08 06:44:48;;;;;;;16.97;11.63;;;;;;;;;;4974815;28;20203;-85
2023/12/08 06:47:14;;;;;;;13.30;10.40;;;;;;;;;;4964150;28;20248;-80
2023/12/08 06:49:40;;;;;;;15.10;10.07;;;;;;;;;;4994184;28;20255;-83
2023/12/08 06:52:06;;;;;;;13.93;10.00;;;;;;;;;;4993548;28;20253;-79
2023/12/08 06:54:33;;;;;;;15.20;10.57;;;;;;;;;;4993075;28;20198;-78
2023/12/08 06:56:59;;;;;;;14.30;10.07;;;;;;;;;;4994390;28;20347;-84
2023/12/08 06:59:25;;;;;;;13.30;10.23;;;;;;;;;;4981497;28;20196;-83
2023/12/08 07:01:51;;;;;;;15.93;10.80;;;;;;;;;;4968636;28;20206;-85
2023/12/08 07:04:17;;;;;;;16.03;10.77;;;;;;;;;;4986443;28;20603;-84
2023/12/08 07:06:44;;;;;;;15.13;11.15;;;;;;;;;;4968538;28;20443;-83
2023/12/08 07:09:11;;;;;;;14.63;9.87;;;;;;;;;;4976503;28;20238;-80
2023/12/08 07:11:37;;;;;;;14.50;10.43;;;;;;;;;;4992290;28;20195;-83
2023/12/08 07:14:03;;;;;;;15.07;10.07;;;;;;;;;;4984556;28;20187;-81
2023/12/08 07:16:30;;;;;;;13.73;10.07;;;;;;;;;;4991859;28;20200;-81
2023/12/08 07:18:56;;;;;;;12.57;10.33;;;;;;;;;;4983378;28;20528;-81
2023/12/08 07:21:22;;;;;;;13.07;9.30;;;;;;;;;;4984411;28;20219;-81
2023/12/08 07:23:49;;;;;;;12.33;9.83;;;;;;;;;;4986340;28;20188;-81
2023/12/08 07:26:15;;;;;;;11.53;8.93;;;;;;;;;;4970477;28;20246;-82
2023/12/08 07:28:42;;;;;;;13.27;9.60;;;;;;;;;;4970303;28;20212;-81
2023/12/08 07:31:08;;;;;;;14.63;10.30;;;;;;;;;;4978990;28;20222;-81
2023/12/08 07:33:35;;;;;;;16.70;9.67;;;;;;;;;;4985227;28;20203;-82
2023/12/08 07:36:01;;;;;;;11.97;9.10;;;;;;;;;;4969626;28;20271;-82
2023/12/08 07:38:28;;;;;;;13.57;9.87;;;;;;;;;;4970745;28;20321;-86
2023/12/08 07:40:54;;;;;;;13.23;9.67;;;;;;;;;;4979223;28;20241;-86
2023/12/08 07:43:20;;;;;;;13.37;9.50;;;;;;;;;;4972201;28;20627;-86
2023/12/08 07:45:46;;;;;;;12.40;9.17;;;;;;;;;;4988485;28;20663;-86
2023/12/08 07:48:13;;;;;;;14.10;10.30;;;;;;;;;;4972850;28;20709;-86
2023/12/08 07:50:39;;;;;;;13.23;9.63;;;;;;;;;;4975143;28;20195;-86
2023/12/08 07:53:05;;;;;;;12.60;9.50;;;;;;;;;;4974282;28;20183;-86
2023/12/08 07:55:31;;;;;;;17.13;10.73;;;;;;;;;;4971395;28;20206;-86
2023/12/08 07:57:57;;;;;;;15.57;10.00;;;;;;;;;;4969618;28;20215;-85
2023/12/08 08:00:23;;;;;;;15.83;10.57;;;;;;;;;;4971030;28;20258;-86
2023/12/08 08:02:50;;;;;;;16.97;11.37;;;;;;;;;;4970146;28;20204;-86
2023/12/08 08:05:16;;;;;;;14.73;11.40;;;;;;;;;;4977951;28;20196;-86
2023/12/08 08:07:42;;;;;;;13.47;9.87;;;;;;;;;;4970346;28;20664;-86
2023/12/08 08:10:08;;;;;;;11.40;9.00;;;;;;;;;;4971368;28;20304;-85
2023/12/08 08:12:35;;;;;;;13.23;9.40;;;;;;;;;;4990688;28;20196;-86
2023/12/08 08:15:01;;;;;;;10.67;8.40;;;;;;;;;;4974849;28;20171;-85
2023/12/08 08:17:28;;;;;;;13.13;9.87;;;;;;;;;;4974470;28;20199;-86
2023/12/08 08:19:54;;;;;;;13.07;9.73;;;;;;;;;;4989576;28;20273;-86
2023/12/08 08:22:20;;;;;;;12.77;9.30;;;;;;;;;;4974087;28;20199;-85
2023/12/08 08:24:46;;;;;;;13.63;10.17;;;;;;;;;;4957820;28;20254;-86
2023/12/08 08:27:13;;;;;;;14.37;10.37;;;;;;;;;;4973132;28;20271;-85
2023/12/08 08:29:39;;;;;;;15.33;9.63;;;;;;;;;;4973135;28;20247;-86
2023/12/08 08:32:05;;;;;;;12.33;9.90;;;;;;;;;;4975335;28;20553;-86
2023/12/08 08:34:31;;;;;;;13.77;10.00;;;;;;;;;;4990314;28;20191;-87
2023/12/08 08:36:57;;;;;;;14.20;9.70;;;;;;;;;;4974990;28;20180;-86
2023/12/08 08:39:25;;;;;;;16.87;10.57;;;;;;;;;;4990930;28;20688;-86
2023/12/08 08:41:52;;;;;;;14.03;10.90;;;;;;;;;;4981278;28;20203;-86
2023/12/08 08:44:18;;;;;;;14.03;10.17;;;;;;;;;;4990265;28;20226;-85
2023/12/08 08:46:44;;;;;;;13.87;10.00;;;;;;;;;;4973660;28;20191;-86
2023/12/08 08:49:11;;;;;;;13.83;10.17;;;;;;;;;;4990924;28;20207;-86
2023/12/08 08:51:38;;;;;;;13.70;10.00;;;;;;;;;;4966578;28;20192;-85
2023/12/08 08:54:04;;;;;;;13.20;9.43;;;;;;;;;;4975370;28;20187;-86
2023/12/08 08:56:30;;;;;;;16.77;10.67;;;;;;;;;;4975250;28;20847;-89
2023/12/08 08:58:57;;;;;;;14.43;10.30;;;;;;;;;;4980372;28;20207;-85
2023/12/08 09:01:23;;;;;;;15.30;10.23;;;;;;;;;;4981149;28;20253;-85
2023/12/08 09:03:50;;;;;;;13.33;9.47;;;;;;;;;;4973103;28;20200;-85
2023/12/08 09:06:16;;;;;;;12.80;9.80;;;;;;;;;;4989740;28;20688;-86
2023/12/08 09:08:43;;;;;;;16.37;11.70;;;;;;;;;;4972307;28;20220;-86
2023/12/08 09:11:09;;;;;;;12.80;10.30;;;;;;;;;;4990307;28;20256;-86
2023/12/08 09:13:35;;;;;;;13.03;10.30;;;;;;;;;;4965381;28;20335;-86
2023/12/08 09:16:02;;;;;;;14.23;10.43;;;;;;;;;;4975327;28;20195;-85
2023/12/08 09:18:28;;;;;;;15.23;10.53;;;;;;;;;;4992586;28;20207;-85
2023/12/08 09:20:54;;;;;;;13.43;10.47;;;;;;;;;;4978633;28;20666;-85
2023/12/08 09:23:21;;;;;;;13.83;10.10;;;;;;;;;;4981001;28;20242;-85
2023/12/08 09:25:47;;;;;;;13.80;10.50;;;;;;;;;;4973598;28;20338;-86
2023/12/08 09:28:15;;;;;;;16.03;10.87;;;;;;;;;;4972806;28;20567;-85
2023/12/08 09:30:42;;;;;;;14.63;11.03;;;;;;;;;;4975924;28;20216;-85
2023/12/08 09:33:09;;;;;;;12.67;10.13;;;;;;;;;;4977804;28;20187;-86
2023/12/08 09:35:35;;;;;;;14.07;11.13;;;;;;;;;;4985032;28;20188;-87
2023/12/08 09:38:03;;;;;;;15.07;10.73;;;;;;;;;;4991458;28;20228;-85
2023/12/08 09:40:32;;;;;;;13.93;11.00;;;;;;;;;;4959009;28;20680;-85
2023/12/08 09:43:02;;;;;;;14.60;11.63;;;;;;;;;;4968550;28;20699;-86
2023/12/08 09:45:28;;;;;;;13.27;11.47;;;;;;;;;;4990790;28;20200;-85
2023/12/08 09:47:55;;;;;;;13.63;10.43;;;;;;;;;;4983246;28;20184;-85
2023/12/08 09:50:22;;;;;;;14.13;10.40;;;;;;;;;;4968181;28;20680;-86
2023/12/08 09:52:49;;;;;;;13.27;10.60;;;;;;;;;;4975341;28;20192;-86
2023/12/08 09:55:16;;;;;;;15.87;11.80;;;;;;;;;;4985690;28;20179;-86
2023/12/08 09:57:47;;;;;;;14.67;11.30;;;;;;;;;;4992280;28;20195;-85
2023/12/08 10:00:13;;;;;;;12.97;10.57;;;;;;;;;;4985344;28;20644;-85
2023/12/08 10:02:43;;;;;;;13.57;10.23;;;;;;;;;;4976237;28;20203;-85
2023/12/08 10:05:13;;;;;;;13.40;9.90;;;;;;;;;;4966608;28;20332;-85
2023/12/08 10:07:43;;;;;;;13.90;11.03;;;;;;;;;;4976980;28;20184;-85
2023/12/08 10:10:10;;;;;;;15.67;11.27;;;;;;;;;;4992167;28;20664;-86
2023/12/08 10:12:37;;;;;;;16.30;12.60;;;;;;;;;;4976554;28;20679;-85
2023/12/08 10:15:04;;;;;;;15.23;11.47;;;;;;;;;;4968826;28;20192;-85
2023/12/08 10:17:31;;;;;;;19.27;11.87;;;;;;;;;;4991484;28;20184;-88
2023/12/08 10:20:10;;;;;;;14.93;11.27;;;;;;;;;;4974723;28;20351;-85
2023/12/08 10:22:53;;;;;;;16.80;11.47;;;;;;;;;;4990561;28;20192;-85
2023/12/08 10:25:28;;;;;;;15.60;11.77;;;;;;;;;;4975031;28;20188;-85
2023/12/08 10:27:55;;;;;;;15.43;11.87;;;;;;;;;;4982425;28;20183;-85
2023/12/08 10:30:23;;;;;;;17.13;11.57;;;;;;;;;;4975649;28;20307;-86
2023/12/08 10:32:50;;;;;;;15.03;11.07;;;;;;;;;;4975876;28;20275;-86
2023/12/08 10:35:16;;;;;;;17.03;12.43;;;;;;;;;;4990793;28;20698;-85
2023/12/08 10:37:43;;;;;;;16.23;11.53;;;;;;;;;;4973980;28;20652;-85
2023/12/08 10:40:13;;;;;;;14.63;11.53;;;;;;;;;;4963698;28;20229;-85
2023/12/08 10:42:39;;;;;;;16.50;12.77;;;;;;;;;;4969266;28;20196;-89
2023/12/08 10:45:13;;;;;;;19.37;13.63;;;;;;;;;;4987110;28;20208;-85
2023/12/08 10:47:43;;;;;;;18.13;12.97;;;;;;;;;;4971932;28;20195;-85
2023/12/08 10:50:10;;;;;;;19.80;14.63;;;;;;;;;;4962276;28;20208;-85
2023/12/08 10:52:40;;;;;;;16.63;12.73;;;;;;;;;;4972279;28;20330;-87
2023/12/08 10:55:07;;;;;;;16.90;13.40;;;;;;;;;;4982053;28;20178;-86
2023/12/08 10:57:34;;;;;;;17.07;13.50;;;;;;;;;;4986686;28;20241;-85
2023/12/08 11:00:11;;;;;;;20.17;14.00;;;;;;;;;;4972175;28;20212;-86
2023/12/08 11:02:40;;;;;;;17.80;13.43;;;;;;;;;;4979425;28;20188;-85
2023/12/08 11:05:10;;;;;;;17.93;13.63;;;;;;;;;;4989410;28;20183;-85
2023/12/08 11:07:39;;;;;;;20.20;14.63;;;;;;;;;;4970561;28;20215;-80
2023/12/08 11:10:11;;;;;;;18.20;13.50;;;;;;;;;;4962816;28;20212;-84
2023/12/08 11:12:40;;;;;;;17.80;13.23;;;;;;;;;;4978182;28;20206;-84
2023/12/08 11:15:09;;;;;;;18.30;13.77;;;;;;;;;;4971825;28;20636;-85
2023/12/08 11:17:42;;;;;;;17.57;13.37;;;;;;;;;;4989213;28;20286;-84
2023/12/08 11:20:11;;;;;;;17.37;13.00;;;;;;;;;;4988122;28;20278;-84
2023/12/08 11:22:40;;;;;;;15.77;12.37;;;;;;;;;;4964335;28;20219;-84
2023/12/08 11:25:09;;;;;;;17.70;12.43;;;;;;;;;;4988257;28;20234;-84
2023/12/08 11:27:45;;;;;;;17.87;12.67;;;;;;;;;;4971040;28;20179;-85
2023/12/08 11:30:18;;;;;;;18.53;12.97;;;;;;;;;;4987535;28;20309;-85
2023/12/08 11:32:50;;;;;;;17.67;12.67;;;;;;;;;;4968627;28;20191;-84
2023/12/08 11:35:18;;;;;;;17.20;12.60;;;;;;;;;;4961603;28;20187;-84
2023/12/08 11:37:47;;;;;;;17.23;12.53;;;;;;;;;;4961306;28;20200;-83
2023/12/08 11:40:13;;;;;;;16.00;12.60;;;;;;;;;;4971711;28;20576;-84
2023/12/08 11:42:43;;;;;;;16.60;12.97;;;;;;;;;;4967450;28;20201;-83
2023/12/08 11:45:10;;;;;;;16.93;12.50;;;;;;;;;;4968457;28;20192;-85
2023/12/08 11:47:37;;;;;;;18.67;14.03;;;;;;;;;;4967612;28;20261;-83
2023/12/08 11:50:05;;;;;;;18.93;14.67;;;;;;;;;;4986072;28;20204;-81
2023/12/08 11:52:36;;;;;;;18.73;14.13;;;;;;;;;;4969278;28;20283;-90
2023/12/08 11:55:07;;;;;;;16.70;12.80;;;;;;;;;;4969476;28;20177;-86
2023/12/08 11:57:36;;;;;;;14.70;12.07;;;;;;;;;;4957778;28;20183;-82
2023/12/08 12:00:04;;;;;;;16.63;12.27;;;;;;;;;;4969394;28;20543;-81
2023/12/08 12:02:38;;;;;;;15.97;12.07;;;;;;;;;;4984973;28;20191;-84
2023/12/08 12:05:04;;;;;;;17.47;12.73;;;;;;;;;;4987305;28;20864;-81
2023/12/08 12:07:31;;;;;;;17.57;13.33;;;;;;;;;;4982527;28;20196;-81
2023/12/08 12:09:57;;;;;;;17.20;12.33;;;;;;;;;;4972114;28;20220;-81
2023/12/08 12:12:24;;;;;;;16.53;12.67;;;;;;;;;;4983951;28;20200;-81
2023/12/08 12:14:54;;;;;;;17.57;12.90;;;;;;;;;;4973112;28;20180;-81
2023/12/08 12:17:21;;;;;;;19.33;14.10;;;;;;;;;;4973562;28;20180;-81
2023/12/08 12:19:47;;;;;;;16.53;12.60;;;;;;;;;;4988799;28;20306;-81
2023/12/08 12:22:14;;;;;;;17.93;12.27;;;;;;;;;;4984904;28;20191;-81
2023/12/08 12:24:41;;;;;;;16.97;12.70;;;;;;;;;;4989033;28;20180;-80
2023/12/08 12:27:07;;;;;;;17.93;13.20;;;;;;;;;;4964587;28;20220;-74
2023/12/08 12:29:33;;;;;;;16.17;12.33;;;;;;;;;;4997158;28;20226;-74
2023/12/08 12:32:00;;;;;;;15.60;12.10;;;;;;;;;;4985613;28;20659;-77
2023/12/08 12:34:26;;;;;;;15.27;12.20;;;;;;;;;;4985572;28;20258;-79
2023/12/08 12:36:52;;;;;;;16.93;12.63;;;;;;;;;;4999133;28;20195;-81
2023/12/08 12:39:18;;;;;;;15.70;12.00;;;;;;;;;;4985796;28;20562;-78
2023/12/08 12:41:45;;;;;;;15.97;12.70;;;;;;;;;;4985296;28;20192;-78
2023/12/08 12:44:11;;;;;;;15.03;11.63;;;;;;;;;;4977398;28;20187;-78
2023/12/08 12:46:41;;;;;;;14.83;11.70;;;;;;;;;;4985210;28;20263;-83
2023/12/08 12:49:13;;;;;;;17.40;12.80;;;;;;;;;;4969543;28;20216;-81
2023/12/08 12:51:42;;;;;;;17.60;13.13;;;;;;;;;;4967493;28;20652;-81
2023/12/08 12:54:09;;;;;;;14.97;11.40;;;;;;;;;;4969800;28;20638;-82
2023/12/08 12:56:36;;;;;;;15.03;11.37;;;;;;;;;;4986063;28;20586;-82
2023/12/08 12:59:11;;;;;;;15.50;11.83;;;;;;;;;;4972507;28;20219;-82
2023/12/08 13:01:37;;;;;;;16.67;12.40;;;;;;;;;;5002184;28;20190;-81
2023/12/08 13:04:04;;;;;;;15.97;12.37;;;;;;;;;;4972789;28;20305;-82
2023/12/08 13:06:32;;;;;;;16.87;13.50;;;;;;;;;;4960819;28;20651;-83
2023/12/08 13:09:03;;;;;;;17.87;13.67;;;;;;;;;;4975795;28;20265;-82
2023/12/08 13:11:29;;;;;;;15.90;12.73;;;;;;;;;;4973832;28;20180;-83
2023/12/08 13:13:56;;;;;;;17.00;12.83;;;;;;;;;;4965757;28;20211;-85
2023/12/08 13:16:23;;;;;;;18.53;12.37;;;;;;;;;;4991439;28;20183;-82
2023/12/08 13:18:50;;;;;;;15.93;12.17;;;;;;;;;;4989683;28;20508;-80
2023/12/08 13:21:16;;;;;;;17.07;13.20;;;;;;;;;;4988246;28;20187;-81
2023/12/08 13:23:43;;;;;;;18.20;13.03;;;;;;;;;;4974208;28;20194;-81
2023/12/08 13:26:09;;;;;;;16.97;12.63;;;;;;;;;;4974465;28;20202;-83
2023/12/08 13:28:36;;;;;;;15.33;11.53;;;;;;;;;;4988904;28;20292;-85
2023/12/08 13:31:02;;;;;;;16.50;12.63;;;;;;;;;;4981868;28;20246;-84
2023/12/08 13:33:28;;;;;;;16.37;12.00;;;;;;;;;;4986560;28;20644;-84
2023/12/08 13:35:55;;;;;;;16.87;11.73;;;;;;;;;;4988825;28;20280;-84
2023/12/08 13:38:25;;;;;;;18.03;12.53;;;;;;;;;;4965621;28;20222;-86
2023/12/08 13:40:51;;;;;;;17.43;12.03;;;;;;;;;;4974006;28;20200;-84
2023/12/08 13:43:17;;;;;;;16.97;12.27;;;;;;;;;;4966375;28;20602;-84
2023/12/08 13:45:43;;;;;;;15.23;12.00;;;;;;;;;;4992227;28;20191;-84
2023/12/08 13:48:09;;;;;;;15.60;11.87;;;;;;;;;;4978178;28;20203;-84
2023/12/08 13:50:36;;;;;;;14.80;11.73;;;;;;;;;;4967570;28;20211;-84
2023/12/08 13:53:02;;;;;;;16.60;13.07;;;;;;;;;;4965669;28;20184;-84
2023/12/08 13:55:28;;;;;;;19.07;14.20;;;;;;;;;;4982434;28;20230;-84
2023/12/08 13:57:54;;;;;;;16.50;13.60;;;;;;;;;;4966246;28;20342;-84
2023/12/08 14:00:21;;;;;;;15.87;12.43;;;;;;;;;;4980862;28;20199;-84
2023/12/08 14:02:47;;;;;;;16.43;12.57;;;;;;;;;;4981312;28;20656;-84
2023/12/08 14:05:13;;;;;;;18.87;14.23;;;;;;;;;;4980374;28;20298;-84
2023/12/08 14:07:39;;;;;;;17.57;13.70;;;;;;;;;;4963417;28;20195;-84
2023/12/08 14:10:07;;;;;;;18.73;14.73;;;;;;;;;;4960491;28;20565;-82
2023/12/08 14:12:33;;;;;;;17.70;13.53;;;;;;;;;;4977952;28;20207;-84
2023/12/08 14:15:00;;;;;;;16.43;12.73;;;;;;;;;;4992668;28;20559;-84
2023/12/08 14:17:26;;;;;;;13.63;11.20;;;;;;;;;;4990328;28;20214;-85
2023/12/08 14:19:53;;;;;;;15.93;11.03;;;;;;;;;;4988080;28;20219;-84
2023/12/08 14:22:19;;;;;;;16.37;12.97;;;;;;;;;;4979194;28;20192;-85